Time;durP1;ratioP1;P1;durP2;ratioP2;P2;SDS_P1;SDS_P2;PMS_P1;PMS_P2;Temp;Humidity;BMP_temperature;BMP_pressure;BME280_temperature;BME280_humidity;BME280_pressure;Samples;Min_cycle;Max_cycle;Signal;HPM_P1;HPM_P2
2021/12/06 00:01:07;;;;;;;259.00;22.50;;;0.50;99.90;;;;;;5017706;28;20037;-92
2021/12/06 00:03:44;;;;;;;234.73;20.85;;;0.50;99.90;;;;;;5037661;28;20111;-93
2021/12/06 00:06:11;;;;;;;282.60;26.25;;;0.50;99.90;;;;;;5036760;28;20071;-94
2021/12/06 00:08:37;;;;;;;244.18;22.70;;;0.50;99.90;;;;;;5061150;28;20104;-93
2021/12/06 00:11:08;;;;;;;271.10;21.45;;;0.50;99.90;;;;;;5040000;28;20057;-93
2021/12/06 00:13:39;;;;;;;272.98;22.15;;;0.50;99.90;;;;;;5036441;28;20037;-93
2021/12/06 00:16:11;;;;;;;228.48;20.50;;;0.40;99.90;;;;;;5036662;28;20028;-94
2021/12/06 00:18:37;;;;;;;323.20;24.40;;;0.40;99.90;;;;;;5054371;28;20028;-94
2021/12/06 00:21:04;;;;;;;165.18;20.98;;;0.40;99.90;;;;;;5040855;28;20052;-92
2021/12/06 00:23:31;;;;;;;155.43;18.15;;;0.40;99.90;;;;;;5034803;28;20504;-93
2021/12/06 00:25:57;;;;;;;221.45;21.08;;;0.40;99.90;;;;;;5028655;28;20096;-93
2021/12/06 00:28:23;;;;;;;178.95;23.25;;;0.40;99.90;;;;;;5037261;28;20028;-93
2021/12/06 00:30:50;;;;;;;162.10;21.33;;;0.40;99.90;;;;;;5032152;28;20393;-93
2021/12/06 00:33:16;;;;;;;201.75;21.08;;;0.40;99.90;;;;;;5037841;28;20033;-94
2021/12/06 00:35:42;;;;;;;193.80;24.52;;;0.40;99.90;;;;;;5036858;28;20077;-93
2021/12/06 00:38:08;;;;;;;134.13;21.15;;;0.40;99.90;;;;;;5043349;28;20103;-93
2021/12/06 00:40:41;;;;;;;137.60;25.20;;;0.40;99.90;;;;;;5042254;28;20033;-93
2021/12/06 00:43:07;;;;;;;268.30;28.33;;;0.40;99.90;;;;;;5024246;28;20060;-93
2021/12/06 00:45:34;;;;;;;148.70;19.92;;;0.50;99.90;;;;;;5042913;28;20032;-94
2021/12/06 00:48:00;;;;;;;160.40;19.98;;;0.50;99.90;;;;;;5035836;28;20389;-92
2021/12/06 00:50:29;;;;;;;152.63;19.30;;;0.50;99.90;;;;;;5036164;28;20209;-94
2021/12/06 00:52:55;;;;;;;171.25;22.65;;;0.50;99.90;;;;;;5038557;28;20078;-93
2021/12/06 00:55:22;;;;;;;158.75;18.85;;;0.50;99.90;;;;;;5033851;28;20029;-93
2021/12/06 00:57:52;;;;;;;123.18;17.60;;;0.50;99.90;;;;;;5036653;28;20025;-93
2021/12/06 01:00:35;;;;;;;152.45;18.05;;;0.40;99.90;;;;;;5053820;28;20507;-92
2021/12/06 01:03:06;;;;;;;123.72;16.05;;;0.40;99.90;;;;;;5033610;28;20057;-93
2021/12/06 01:05:32;;;;;;;;;;;0.50;99.90;;;;;;5060400;28;20365;-93
2021/12/06 01:07:58;;;;;;;118.28;18.67;;;0.50;99.90;;;;;;5042500;28;19913;-93
2021/12/06 01:10:27;;;;;;;102.50;17.92;;;0.50;99.90;;;;;;5042358;28;20033;-94
2021/12/06 01:12:53;;;;;;;121.72;19.00;;;0.50;99.90;;;;;;5022205;28;20037;-92
2021/12/06 01:15:19;;;;;;;195.80;22.60;;;0.60;99.90;;;;;;5035926;28;20112;-93
2021/12/06 01:17:46;;;;;;;159.82;20.17;;;0.60;99.90;;;;;;5034945;28;20060;-93
2021/12/06 01:20:22;;;;;;;66.90;18.00;;;0.50;99.90;;;;;;5036273;28;20045;-93
2021/12/06 01:23:03;;;;;;;139.75;19.48;;;0.50;99.90;;;;;;5032266;28;20025;-94
2021/12/06 01:31:06;;;;;;;90.18;18.33;;;0.50;99.90;;;;;;5052911;28;20025;-93
2021/12/06 01:33:42;;;;;;;57.38;15.73;;;0.50;99.90;;;;;;5042647;28;20039;-94
2021/12/06 01:39:15;;;;;;;56.40;16.98;;;0.60;99.90;;;;;;5057341;28;20040;-95
2021/12/06 01:41:54;;;;;;;180.15;18.80;;;0.60;99.90;;;;;;5029204;28;20041;-93
2021/12/06 01:44:41;;;;;;;72.90;16.00;;;0.60;99.90;;;;;;5033972;28;20048;-92
2021/12/06 01:47:19;;;;;;;68.60;16.35;;;0.60;99.90;;;;;;5034491;28;20025;-93
2021/12/06 01:49:59;;;;;;;51.45;16.10;;;0.60;99.90;;;;;;5033293;28;20052;-94
2021/12/06 01:52:32;;;;;;;57.83;15.38;;;0.60;99.90;;;;;;5036163;28;20120;-93
2021/12/06 01:54:59;;;;;;;72.97;16.00;;;0.60;99.90;;;;;;5043169;28;20033;-93
2021/12/06 01:57:27;;;;;;;48.47;14.57;;;0.60;99.90;;;;;;5017809;28;20037;-93
2021/12/06 01:59:53;;;;;;;64.70;14.75;;;0.70;99.90;;;;;;5041418;28;20067;-93
2021/12/06 02:02:22;;;;;;;29.90;14.10;;;0.70;99.90;;;;;;5043254;28;20472;-93
2021/12/06 02:04:48;;;;;;;52.20;14.25;;;0.70;99.90;;;;;;5035067;28;20036;-93
2021/12/06 02:07:16;;;;;;;75.03;15.25;;;0.70;99.90;;;;;;5044093;28;20025;-93
2021/12/06 02:09:45;;;;;;;75.53;14.15;;;0.70;99.90;;;;;;5043728;28;20029;-93
2021/12/06 02:12:11;;;;;;;78.43;15.20;;;0.70;99.90;;;;;;5027871;28;20041;-94
2021/12/06 02:17:27;;;;;;;66.25;14.10;;;0.70;99.90;;;;;;5055991;28;20059;-93
2021/12/06 02:20:03;;;;;;;77.90;16.38;;;0.70;99.90;;;;;;5042359;28;20033;-94
2021/12/06 02:22:33;;;;;;;119.68;17.73;;;0.70;99.90;;;;;;5035813;28;20056;-94
2021/12/06 02:25:00;;;;;;;65.85;16.33;;;0.70;99.90;;;;;;5039368;28;20407;-93
2021/12/06 02:27:28;;;;;;;97.40;16.55;;;0.70;99.90;;;;;;5042461;28;20435;-93
2021/12/06 02:29:57;;;;;;;94.03;17.23;;;0.70;99.90;;;;;;5041522;28;20028;-94
2021/12/06 02:32:22;;;;;;;62.88;15.27;;;0.60;99.90;;;;;;5036310;28;20040;-93
2021/12/06 02:34:52;;;;;;;58.67;16.88;;;0.60;99.90;;;;;;5030815;28;20143;-93
2021/12/06 02:37:22;;;;;;;88.95;16.50;;;0.60;99.90;;;;;;5052527;28;20052;-93
2021/12/06 02:39:48;;;;;;;102.53;18.52;;;0.70;99.90;;;;;;5039621;28;20021;-93
2021/12/06 02:42:16;;;;;;;55.25;16.65;;;0.70;99.90;;;;;;5056540;28;20048;-91
2021/12/06 02:44:44;;;;;;;30.48;14.70;;;0.60;99.90;;;;;;5043672;28;20036;-94
2021/12/06 02:47:10;;;;;;;23.77;13.60;;;0.60;99.90;;;;;;5044989;28;20029;-94
2021/12/06 02:49:36;;;;;;;27.45;13.98;;;0.60;99.90;;;;;;5043520;28;20112;-93
2021/12/06 02:52:04;;;;;;;26.20;13.38;;;0.60;99.90;;;;;;5044070;28;20136;-93
2021/12/06 02:54:30;;;;;;;24.33;12.43;;;0.60;99.90;;;;;;5047077;28;20099;-93
2021/12/06 02:57:17;;;;;;;18.85;13.45;;;0.60;99.90;;;;;;5045459;28;20119;-93
2021/12/06 02:59:44;;;;;;;21.77;13.27;;;0.60;99.90;;;;;;5061046;28;20488;-93
2021/12/06 03:02:16;;;;;;;24.13;14.65;;;0.60;99.90;;;;;;5029169;28;20032;-94
2021/12/06 03:04:42;;;;;;;19.58;12.65;;;0.60;99.90;;;;;;5042403;28;20037;-94
2021/12/06 03:07:09;;;;;;;16.75;11.20;;;0.60;99.90;;;;;;5038047;28;20044;-94
2021/12/06 03:09:37;;;;;;;23.83;13.85;;;0.60;99.90;;;;;;5038125;28;20029;-93
2021/12/06 03:12:17;;;;;;;16.90;12.50;;;0.60;99.90;;;;;;5055867;28;20110;-93
2021/12/06 03:14:46;;;;;;;15.32;12.27;;;0.60;99.90;;;;;;5038049;28;20021;-94
2021/12/06 03:17:16;;;;;;;16.13;11.73;;;0.60;99.90;;;;;;5046472;28;20032;-94
2021/12/06 03:19:42;;;;;;;14.98;12.18;;;0.60;99.90;;;;;;5037035;28;20485;-94
2021/12/06 03:22:11;;;;;;;14.40;12.88;;;0.60;99.90;;;;;;5038461;28;20033;-93
2021/12/06 03:24:37;;;;;;;15.60;12.23;;;0.60;99.90;;;;;;5034482;28;20651;-93
2021/12/06 03:27:04;;;;;;;15.35;11.65;;;0.60;99.90;;;;;;5047529;28;21777;-93
2021/12/06 03:29:30;;;;;;;16.52;11.70;;;0.50;99.90;;;;;;5032484;28;20022;-94
2021/12/06 03:31:56;;;;;;;15.77;12.20;;;0.50;99.90;;;;;;5037142;28;20036;-93
2021/12/06 03:34:26;;;;;;;23.02;13.25;;;0.40;99.90;;;;;;5036594;28;20036;-93
2021/12/06 03:36:53;;;;;;;20.90;13.43;;;0.40;99.90;;;;;;5036621;28;20025;-93
2021/12/06 03:39:26;;;;;;;24.92;14.25;;;0.30;99.90;;;;;;5036469;28;20060;-93
2021/12/06 03:41:55;;;;;;;18.15;12.98;;;0.30;99.90;;;;;;5035405;28;20027;-92
2021/12/06 03:44:24;;;;;;;43.28;16.38;;;0.30;99.90;;;;;;5058268;28;20100;-93
2021/12/06 03:46:57;;;;;;;50.25;15.45;;;0.30;99.90;;;;;;5053955;28;20034;-93
2021/12/06 03:49:23;;;;;;;64.22;16.30;;;0.40;99.90;;;;;;5034816;28;20056;-92
2021/12/06 03:51:49;;;;;;;71.07;17.45;;;0.40;99.90;;;;;;5034600;28;20064;-93
2021/12/06 03:54:19;;;;;;;124.20;17.23;;;0.40;99.90;;;;;;5033192;28;20037;-93
2021/12/06 03:56:45;;;;;;;166.32;17.88;;;0.40;99.90;;;;;;5028321;28;20029;-93
2021/12/06 03:59:11;;;;;;;73.65;15.68;;;0.40;99.90;;;;;;5051776;28;20021;-93
2021/12/06 04:01:37;;;;;;;145.82;19.58;;;0.40;99.90;;;;;;5038519;28;20041;-93
2021/12/06 04:04:05;;;;;;;254.63;20.45;;;0.40;99.90;;;;;;5036989;28;20033;-93
2021/12/06 04:06:31;;;;;;;178.90;18.00;;;0.30;99.90;;;;;;5032529;28;20025;-93
2021/12/06 04:08:57;;;;;;;77.53;14.10;;;0.30;99.90;;;;;;5033840;28;20040;-93
2021/12/06 04:11:22;;;;;;;140.93;15.15;;;0.30;99.90;;;;;;5036350;28;20566;-93
2021/12/06 04:13:48;;;;;;;67.10;14.20;;;0.30;99.90;;;;;;5032698;28;20033;-92
2021/12/06 04:16:15;;;;;;;160.30;17.35;;;0.30;99.90;;;;;;5038193;28;20025;-93
2021/12/06 04:18:40;;;;;;;67.60;16.42;;;0.40;99.90;;;;;;5035899;28;20040;-93
2021/12/06 04:21:07;;;;;;;162.55;18.25;;;0.40;99.90;;;;;;5042983;28;20052;-92
2021/12/06 04:23:34;;;;;;;201.85;20.30;;;0.40;99.90;;;;;;5035607;28;20048;-92
2021/12/06 04:26:00;;;;;;;143.18;14.95;;;0.40;99.90;;;;;;5035029;28;20509;-92
2021/12/06 04:28:29;;;;;;;229.65;20.45;;;0.40;99.90;;;;;;5036719;28;20036;-93
2021/12/06 04:30:55;;;;;;;188.55;18.67;;;0.40;99.90;;;;;;5065839;28;20032;-92
2021/12/06 04:33:20;;;;;;;197.75;16.73;;;0.40;99.90;;;;;;5035427;28;20391;-92
2021/12/06 04:35:47;;;;;;;223.02;21.77;;;0.40;99.90;;;;;;5042106;28;20025;-92
2021/12/06 04:38:13;;;;;;;64.35;14.15;;;0.40;99.90;;;;;;5062628;28;20034;-93
2021/12/06 04:40:39;;;;;;;71.43;14.13;;;0.40;99.90;;;;;;5058474;28;20029;-92
2021/12/06 04:43:05;;;;;;;93.38;15.32;;;0.40;99.90;;;;;;5045195;28;20029;-93
2021/12/06 04:45:31;;;;;;;146.63;15.63;;;0.40;99.90;;;;;;5034796;28;20033;-93
2021/12/06 04:47:56;;;;;;;139.90;15.23;;;0.50;99.90;;;;;;5046226;28;20151;-92
2021/12/06 04:50:30;;;;;;;82.78;13.63;;;0.50;99.90;;;;;;5035572;28;20028;-91
2021/12/06 04:52:57;;;;;;;89.15;13.10;;;0.50;99.90;;;;;;5036662;28;20551;-93
2021/12/06 04:55:56;;;;;;;105.07;13.40;;;0.50;99.90;;;;;;5026934;28;20034;-92
2021/12/06 04:58:28;;;;;;;80.28;13.38;;;0.50;99.90;;;;;;5050459;28;20036;-92
2021/12/06 05:01:04;;;;;;;82.35;12.65;;;0.60;99.90;;;;;;5031603;28;20025;-92
2021/12/06 05:03:30;;;;;;;105.88;13.75;;;0.60;99.90;;;;;;5031580;28;20397;-93
2021/12/06 05:06:00;;;;;;;68.53;12.30;;;0.50;99.90;;;;;;5034725;28;20114;-92
2021/12/06 05:08:30;;;;;;;113.35;13.13;;;0.60;99.90;;;;;;5034977;28;20016;-92
2021/12/06 05:10:58;;;;;;;125.97;12.07;;;0.60;99.90;;;;;;5029993;28;20032;-93
2021/12/06 05:13:24;;;;;;;85.10;12.75;;;0.60;99.90;;;;;;5043060;28;20067;-92
2021/12/06 05:15:51;;;;;;;93.15;12.07;;;0.60;99.90;;;;;;5031905;28;20017;-94
2021/12/06 05:18:16;;;;;;;56.95;12.13;;;0.50;99.90;;;;;;5052669;28;20035;-93
2021/12/06 05:20:42;;;;;;;76.07;10.77;;;0.50;99.90;;;;;;5051367;28;20021;-94
2021/12/06 05:23:10;;;;;;;131.50;12.63;;;0.60;99.90;;;;;;5040049;28;20032;-92
2021/12/06 05:25:36;;;;;;;129.45;12.82;;;0.50;99.90;;;;;;5036069;28;20036;-94
2021/12/06 05:28:02;;;;;;;104.60;11.27;;;0.50;99.90;;;;;;5037848;28;20249;-92
2021/12/06 05:30:29;;;;;;;67.90;10.35;;;0.50;99.90;;;;;;5051978;28;20029;-91
2021/12/06 05:32:58;;;;;;;63.40;9.95;;;0.50;99.90;;;;;;5035267;28;20047;-95
2021/12/06 05:35:24;;;;;;;54.25;9.43;;;0.50;99.90;;;;;;5035130;28;20017;-94
2021/12/06 05:37:55;;;;;;;57.15;11.02;;;0.50;99.90;;;;;;5046654;28;20024;-94
2021/12/06 05:40:32;;;;;;;;;;;0.40;99.90;;;;;;5034670;28;20033;-95
2021/12/06 05:43:00;;;;;;;36.10;8.85;;;0.40;99.90;;;;;;5038728;28;19915;-94
2021/12/06 05:45:28;;;;;;;43.97;10.13;;;0.40;99.90;;;;;;5023783;28;20083;-94
2021/12/06 05:47:55;;;;;;;53.10;10.35;;;0.40;99.90;;;;;;5045985;28;20028;-93
2021/12/06 05:50:23;;;;;;;86.15;11.38;;;0.30;99.90;;;;;;5034686;28;20488;-93
2021/12/06 05:52:53;;;;;;;92.50;11.85;;;0.30;99.90;;;;;;5036502;28;20661;-92
2021/12/06 05:55:19;;;;;;;166.88;14.15;;;0.30;99.90;;;;;;5033808;28;20037;-91
2021/12/06 05:57:46;;;;;;;85.25;11.98;;;0.20;99.90;;;;;;5054019;28;20107;-91
2021/12/06 06:00:16;;;;;;;175.25;17.30;;;0.10;99.90;;;;;;5033322;28;20175;-91
2021/12/06 06:02:42;;;;;;;169.27;16.98;;;0.10;99.90;;;;;;5031670;28;20464;-91
2021/12/06 06:05:09;;;;;;;65.40;12.20;;;0.00;99.90;;;;;;5048015;28;20029;-91
2021/12/06 06:07:34;;;;;;;96.47;12.82;;;0.00;99.90;;;;;;5033866;28;20041;-92
2021/12/06 06:10:00;;;;;;;87.10;12.45;;;0.00;99.90;;;;;;5046828;28;20036;-91
2021/12/06 06:12:26;;;;;;;56.58;13.90;;;0.00;99.90;;;;;;5044396;28;20052;-91
2021/12/06 06:14:53;;;;;;;86.93;14.55;;;0.00;99.90;;;;;;5033785;28;20020;-91
2021/12/06 06:17:20;;;;;;;146.77;16.63;;;0.00;99.90;;;;;;5024509;28;20439;-91
2021/12/06 06:19:52;;;;;;;75.82;15.35;;;0.00;99.90;;;;;;5041612;28;20025;-91
2021/12/06 06:22:19;;;;;;;78.03;15.57;;;0.00;99.90;;;;;;5036185;28;20037;-91
2021/12/06 06:24:46;;;;;;;54.22;13.13;;;0.00;99.90;;;;;;5049733;28;20025;-91
2021/12/06 06:27:12;;;;;;;81.13;12.85;;;0.10;99.90;;;;;;5039171;28;20021;-92
2021/12/06 06:29:38;;;;;;;84.50;14.65;;;0.10;99.90;;;;;;5036791;28;20017;-92
2021/12/06 06:32:05;;;;;;;158.45;15.50;;;0.10;99.90;;;;;;5036183;28;20025;-92
2021/12/06 06:34:31;;;;;;;115.20;13.50;;;0.20;99.90;;;;;;5048276;28;20044;-92
2021/12/06 06:36:59;;;;;;;114.63;13.05;;;0.20;99.90;;;;;;5035541;28;20053;-92
2021/12/06 06:39:25;;;;;;;190.93;16.40;;;0.20;99.90;;;;;;5034506;28;20120;-92
2021/12/06 06:41:52;;;;;;;161.77;16.90;;;0.20;99.90;;;;;;5049258;28;20110;-92
2021/12/06 06:44:20;;;;;;;190.43;18.05;;;0.20;99.90;;;;;;5050428;28;20014;-90
2021/12/06 06:46:47;;;;;;;241.50;18.50;;;0.20;99.90;;;;;;5029373;28;20039;-92
2021/12/06 06:49:14;;;;;;;109.57;14.60;;;0.20;99.90;;;;;;5039004;28;20030;-93
2021/12/06 06:51:40;;;;;;;156.63;15.05;;;0.10;99.90;;;;;;5038612;28;20100;-92
2021/12/06 06:54:07;;;;;;;90.78;13.98;;;0.10;99.90;;;;;;5033571;28;20045;-93
2021/12/06 06:56:33;;;;;;;85.03;11.98;;;0.20;99.90;;;;;;5033926;28;20025;-93
2021/12/06 06:58:59;;;;;;;90.47;12.18;;;0.20;99.90;;;;;;5051172;28;20443;-90
2021/12/06 07:01:25;;;;;;;157.52;15.52;;;0.20;99.90;;;;;;5033035;28;20029;-92
2021/12/06 07:03:53;;;;;;;184.73;13.13;;;0.20;99.90;;;;;;5035919;28;20075;-92
2021/12/06 07:06:21;;;;;;;195.00;14.40;;;0.20;99.90;;;;;;5033390;28;20076;-91
2021/12/06 07:08:47;;;;;;;206.07;14.38;;;0.10;99.90;;;;;;5059777;28;20018;-92
2021/12/06 07:11:13;;;;;;;149.57;13.45;;;0.10;99.90;;;;;;5033703;28;20025;-92
2021/12/06 07:13:39;;;;;;;136.65;12.95;;;0.10;99.90;;;;;;5037157;28;20824;-92
2021/12/06 07:16:07;;;;;;;99.43;13.32;;;0.10;99.90;;;;;;5035713;28;20406;-91
2021/12/06 07:18:33;;;;;;;204.25;14.88;;;0.20;99.90;;;;;;5037120;28;20068;-91
2021/12/06 07:20:59;;;;;;;176.90;14.85;;;0.20;99.90;;;;;;5047774;28;20016;-92
2021/12/06 07:23:24;;;;;;;100.68;12.15;;;0.20;99.90;;;;;;5042661;28;20025;-92
2021/12/06 07:25:53;;;;;;;145.48;12.90;;;0.20;99.90;;;;;;5050086;28;20032;-92
2021/12/06 07:28:19;;;;;;;191.75;13.65;;;0.30;99.90;;;;;;5036499;28;20167;-92
2021/12/06 07:30:44;;;;;;;161.98;13.98;;;0.30;99.90;;;;;;5036510;28;20110;-92
2021/12/06 07:33:10;;;;;;;208.68;15.20;;;0.30;99.90;;;;;;5054585;28;20029;-92
2021/12/06 07:35:36;;;;;;;136.98;16.45;;;0.30;99.90;;;;;;5036841;28;20036;-92
2021/12/06 07:38:05;;;;;;;104.40;12.77;;;0.30;99.90;;;;;;5054175;28;20087;-91
2021/12/06 07:40:31;;;;;;;97.32;13.02;;;0.30;99.90;;;;;;5036279;28;20053;-90
2021/12/06 07:42:57;;;;;;;186.90;15.63;;;0.40;99.90;;;;;;5036710;28;20029;-91
2021/12/06 07:45:24;;;;;;;182.50;14.27;;;0.40;99.90;;;;;;5053817;28;20017;-92
2021/12/06 07:47:50;;;;;;;195.50;15.90;;;0.40;99.90;;;;;;5042136;28;20082;-93
2021/12/06 07:50:18;;;;;;;196.63;16.25;;;0.40;99.90;;;;;;5047458;28;20032;-92
2021/12/06 07:52:44;;;;;;;155.25;13.93;;;0.40;99.90;;;;;;5043312;28;20069;-92
2021/12/06 07:55:13;;;;;;;63.10;11.60;;;0.40;99.90;;;;;;5035072;28;20112;-92
2021/12/06 07:57:39;;;;;;;92.10;13.38;;;0.50;99.90;;;;;;5036114;28;20036;-92
2021/12/06 08:00:11;;;;;;;70.82;12.13;;;0.60;99.90;;;;;;5036467;28;20047;-92
2021/12/06 08:02:38;;;;;;;48.70;13.25;;;0.70;99.90;;;;;;5040231;28;20129;-93
2021/12/06 08:07:49;;;;;;;72.60;11.45;;;1.00;99.90;;;;;;5054323;28;20408;-92
2021/12/06 08:10:18;;;;;;;66.57;11.27;;;1.10;99.90;;;;;;5035172;28;20022;-92
2021/12/06 08:12:44;;;;;;;33.45;10.48;;;1.20;99.90;;;;;;5035806;28;20037;-92
2021/12/06 08:15:10;;;;;;;40.13;10.27;;;1.20;99.90;;;;;;5036129;28;20098;-90
2021/12/06 08:17:36;;;;;;;46.97;11.40;;;1.20;99.90;;;;;;5028149;28;20025;-92
2021/12/06 08:20:05;;;;;;;84.03;11.93;;;1.30;99.90;;;;;;5039920;28;20036;-91
2021/12/06 08:22:31;;;;;;;50.80;11.23;;;1.30;99.90;;;;;;5028359;28;20037;-93
2021/12/06 08:24:57;;;;;;;126.07;15.13;;;1.30;99.90;;;;;;5040442;28;20572;-92
2021/12/06 08:27:23;;;;;;;47.90;11.45;;;1.20;99.90;;;;;;5036044;28;20060;-92
2021/12/06 08:29:48;;;;;;;62.42;12.23;;;1.30;99.90;;;;;;5041281;28;20045;-93
2021/12/06 08:32:14;;;;;;;36.75;11.60;;;1.30;99.90;;;;;;5056194;28;20033;-90
2021/12/06 08:34:41;;;;;;;71.22;13.95;;;1.30;99.90;;;;;;5035636;28;20033;-93
2021/12/06 08:37:08;;;;;;;51.15;10.18;;;1.40;99.90;;;;;;5058921;28;20066;-93
2021/12/06 08:39:34;;;;;;;97.90;13.20;;;1.40;99.90;;;;;;5040088;28;20028;-92
2021/12/06 08:42:00;;;;;;;31.88;10.55;;;1.50;99.90;;;;;;5038593;28;20025;-90
2021/12/06 08:44:26;;;;;;;66.43;11.27;;;1.60;99.90;;;;;;5038797;28;20021;-91
2021/12/06 08:46:52;;;;;;;70.95;10.93;;;1.70;99.90;;;;;;5022889;28;20053;-93
2021/12/06 08:49:17;;;;;;;86.72;12.43;;;1.80;99.90;;;;;;5023345;28;20560;-92
2021/12/06 08:51:47;;;;;;;103.30;12.18;;;1.80;99.90;;;;;;5037769;28;20029;-92
2021/12/06 08:54:16;;;;;;;102.50;12.13;;;1.90;99.90;;;;;;5034774;28;20083;-93
2021/12/06 08:56:42;;;;;;;26.88;10.23;;;1.90;99.90;;;;;;5041937;28;20025;-92
2021/12/06 08:59:09;;;;;;;10.13;8.82;;;1.90;99.90;;;;;;5041535;28;20025;-93
2021/12/06 09:01:36;;;;;;;10.00;8.65;;;1.90;99.90;;;;;;5031611;28;20037;-92
2021/12/06 09:04:03;;;;;;;10.50;9.40;;;2.00;99.90;;;;;;5032103;28;20065;-93
2021/12/06 09:06:29;;;;;;;9.75;8.82;;;2.00;99.90;;;;;;5035254;28;20021;-92
2021/12/06 09:08:55;;;;;;;10.18;9.18;;;2.10;99.90;;;;;;5054437;28;20502;-93
2021/12/06 09:11:21;;;;;;;8.82;8.02;;;2.20;99.90;;;;;;5034523;28;20029;-92
2021/12/06 09:13:47;;;;;;;11.05;9.95;;;2.40;99.90;;;;;;5028514;28;20489;-94
2021/12/06 09:16:13;;;;;;;10.63;9.63;;;2.40;99.90;;;;;;5026414;28;20068;-93
2021/12/06 09:18:41;;;;;;;10.32;9.32;;;2.40;99.90;;;;;;5034754;28;20147;-93
2021/12/06 09:21:14;;;;;;;9.30;8.18;;;2.40;99.90;;;;;;5048614;28;20025;-93
2021/12/06 09:23:40;;;;;;;10.73;9.63;;;2.50;99.90;;;;;;5021332;28;20417;-93
2021/12/06 09:26:06;;;;;;;14.90;10.32;;;2.60;99.90;;;;;;5031830;28;20028;-94
2021/12/06 09:28:33;;;;;;;12.15;10.90;;;2.60;99.90;;;;;;5006939;28;20022;-93
2021/12/06 09:31:01;;;;;;;12.80;10.25;;;2.60;99.90;;;;;;5010872;28;20026;-93
2021/12/06 09:33:28;;;;;;;10.77;9.73;;;2.70;99.90;;;;;;5018502;28;20037;-93
2021/12/06 09:35:57;;;;;;;11.32;10.20;;;2.80;99.90;;;;;;5014972;28;20028;-94
2021/12/06 09:38:27;;;;;;;10.00;9.00;;;2.90;99.90;;;;;;5019569;28;20033;-94
2021/12/06 09:40:54;;;;;;;9.10;8.30;;;3.00;99.90;;;;;;5016264;28;20076;-94
2021/12/06 09:43:21;;;;;;;9.32;8.32;;;3.00;99.90;;;;;;5001347;28;20478;-93
2021/12/06 09:45:47;;;;;;;9.88;8.98;;;3.10;99.90;;;;;;5024939;28;20104;-94
2021/12/06 09:48:15;;;;;;;8.85;7.95;;;3.10;99.90;;;;;;5017506;28;20100;-93
2021/12/06 09:50:45;;;;;;;9.10;8.20;;;3.20;99.90;;;;;;5012427;28;20045;-92
2021/12/06 09:53:14;;;;;;;8.85;8.05;;;3.20;99.90;;;;;;5028014;28;20481;-93
2021/12/06 09:55:42;;;;;;;9.70;8.82;;;3.20;99.90;;;;;;5031981;28;20447;-92
2021/12/06 09:58:09;;;;;;;8.73;7.93;;;3.20;99.90;;;;;;5032508;28;20535;-91
2021/12/06 10:00:41;;;;;;;9.57;8.70;;;3.20;99.90;;;;;;5036267;28;20032;-92
2021/12/06 10:03:07;;;;;;;8.27;7.57;;;3.30;99.90;;;;;;5017058;28;20038;-92
2021/12/06 10:05:33;;;;;;;9.13;8.30;;;3.40;99.90;;;;;;5012913;28;20018;-92
2021/12/06 10:08:00;;;;;;;8.43;7.57;;;3.50;99.90;;;;;;5021125;28;20044;-92
2021/12/06 10:10:27;;;;;;;8.45;7.60;;;3.60;99.90;;;;;;5026753;28;20483;-92
2021/12/06 10:12:54;;;;;;;9.70;8.80;;;3.70;99.90;;;;;;5014065;28;20116;-92
2021/12/06 10:15:22;;;;;;;8.93;8.13;;;3.80;99.90;;;;;;5031334;28;20028;-91
2021/12/06 10:17:48;;;;;;;9.73;8.88;;;3.90;99.90;;;;;;5013779;28;20037;-91
2021/12/06 10:20:15;;;;;;;9.43;8.52;;;3.90;99.90;;;;;;5032613;28;20021;-92
2021/12/06 10:22:41;;;;;;;10.00;8.15;;;4.00;99.90;;;;;;5012604;28;20033;-92
2021/12/06 10:25:07;;;;;;;8.85;6.95;;;3.90;99.90;;;;;;5013946;28;20034;-92
2021/12/06 10:27:33;;;;;;;9.73;8.82;;;4.00;99.90;;;;;;5015248;28;20108;-93
2021/12/06 10:30:03;;;;;;;10.75;8.43;;;4.00;99.90;;;;;;5022096;28;20112;-91
2021/12/06 10:32:32;;;;;;;11.77;8.20;;;3.90;99.90;;;;;;5016192;28;20044;-92
2021/12/06 10:35:05;;;;;;;8.20;7.40;;;3.80;99.90;;;;;;5008735;28;20045;-91
2021/12/06 10:37:46;;;;;;;7.30;6.70;;;3.90;99.90;;;;;;5012119;28;20105;-92
2021/12/06 10:40:22;;;;;;;7.80;6.38;;;4.10;99.90;;;;;;5001361;28;20025;-92
2021/12/06 10:42:49;;;;;;;7.57;6.85;;;4.30;99.90;;;;;;5018100;28;20017;-91
2021/12/06 10:45:27;;;;;;;7.32;6.63;;;4.50;99.90;;;;;;5010449;28;20030;-92
2021/12/06 10:48:23;;;;;;;9.43;6.13;;;4.70;99.90;;;;;;5005043;28;20026;-92
2021/12/06 10:51:04;;;;;;;6.70;5.97;;;4.90;99.90;;;;;;5015126;28;20022;-92
2021/12/06 10:53:38;;;;;;;5.95;5.45;;;5.20;99.90;;;;;;5012328;28;20022;-92
2021/12/06 10:56:14;;;;;;;6.60;6.00;;;5.30;99.90;;;;;;5033550;28;20033;-92
2021/12/06 10:58:40;;;;;;;6.15;5.55;;;5.50;99.90;;;;;;5017399;28;20112;-92
2021/12/06 11:01:09;;;;;;;6.22;5.63;;;5.70;99.90;;;;;;5032837;28;20474;-92
2021/12/06 11:03:35;;;;;;;7.22;6.10;;;5.80;99.90;;;;;;5035586;28;20021;-92
2021/12/06 11:06:16;;;;;;;6.55;5.95;;;5.90;99.90;;;;;;5042434;28;20084;-92
2021/12/06 11:08:43;;;;;;;6.90;6.30;;;5.70;99.90;;;;;;5012424;28;20376;-92
2021/12/06 11:11:15;;;;;;;7.43;6.53;;;5.50;99.90;;;;;;5038989;28;20038;-91
2021/12/06 11:13:45;;;;;;;10.27;6.75;;;5.50;99.90;;;;;;5036170;28;20033;-92
2021/12/06 11:16:16;;;;;;;11.13;7.18;;;5.70;99.90;;;;;;5017245;28;20022;-93
2021/12/06 11:18:52;;;;;;;7.05;6.35;;;6.00;99.90;;;;;;5020013;28;20022;-92
2021/12/06 11:21:36;;;;;;;6.15;5.55;;;6.70;99.90;;;;;;5021909;28;20018;-92
2021/12/06 11:24:13;;;;;;;8.00;6.13;;;7.60;99.90;;;;;;5031776;28;20121;-91
2021/12/06 11:26:49;;;;;;;5.57;5.07;;;8.30;99.90;;;;;;5016305;28;20026;-91
2021/12/06 11:29:22;;;;;;;6.15;5.50;;;8.80;99.90;;;;;;5021773;28;20034;-91
2021/12/06 11:32:03;;;;;;;4.13;3.72;;;9.40;99.90;;;;;;5026387;28;20497;-91
2021/12/06 11:34:33;;;;;;;7.00;5.53;;;9.70;99.90;;;;;;5008815;28;20116;-91
2021/12/06 11:36:59;;;;;;;5.97;4.93;;;10.00;99.90;;;;;;4999415;28;20080;-92
2021/12/06 11:39:24;;;;;;;6.00;5.43;;;10.20;99.90;;;;;;5023304;28;20022;-92
2021/12/06 11:41:53;;;;;;;5.20;4.70;;;10.10;99.90;;;;;;5016424;28;20064;-92
2021/12/06 11:44:24;;;;;;;13.82;7.70;;;9.80;99.90;;;;;;5026510;28;20365;-90
2021/12/06 11:47:04;;;;;;;5.70;5.07;;;9.60;99.90;;;;;;5042965;28;20029;-91
2021/12/06 11:49:34;;;;;;;6.43;5.82;;;9.20;99.90;;;;;;5007943;28;20789;-91
2021/12/06 11:52:01;;;;;;;7.57;6.10;;;9.00;99.90;;;;;;5031725;28;20505;-89
2021/12/06 11:54:34;;;;;;;7.10;6.20;;;8.80;99.90;;;;;;5035562;28;20067;-90
2021/12/06 11:57:09;;;;;;;6.55;5.68;;;8.70;99.90;;;;;;5032225;28;20486;-90
2021/12/06 11:59:55;;;;;;;7.30;6.60;;;8.50;99.90;;;;;;5016867;28;20037;-92
2021/12/06 12:02:52;;;;;;;6.45;5.50;;;8.10;99.90;;;;;;5014531;28;20033;-90
2021/12/06 12:05:29;;;;;;;7.07;6.13;;;7.70;99.90;;;;;;4999572;28;20120;-91
2021/12/06 12:08:12;;;;;;;7.78;7.07;;;7.50;99.90;;;;;;5020273;28;20030;-91
2021/12/06 12:10:48;;;;;;;6.90;5.93;;;7.20;99.90;;;;;;5025904;28;20026;-90
2021/12/06 12:13:37;;;;;;;8.98;6.30;;;6.70;99.90;;;;;;5015648;28;20084;-91
2021/12/06 12:16:07;;;;;;;7.20;6.47;;;6.40;99.90;;;;;;5007683;28;20096;-91
2021/12/06 12:18:36;;;;;;;7.32;6.63;;;6.00;99.90;;;;;;5011570;28;20056;-91
2021/12/06 12:21:04;;;;;;;9.23;7.45;;;5.70;99.90;;;;;;5018981;28;20022;-91
2021/12/06 12:23:32;;;;;;;7.90;7.10;;;5.30;99.90;;;;;;5034087;28;20504;-90
2021/12/06 12:26:04;;;;;;;8.20;7.40;;;5.20;99.90;;;;;;5039683;28;20065;-91
2021/12/06 12:28:40;;;;;;;7.47;6.78;;;5.10;99.90;;;;;;5022524;28;20725;-90
2021/12/06 12:31:09;;;;;;;8.23;7.40;;;5.00;99.90;;;;;;5037226;28;20068;-90
2021/12/06 12:33:36;;;;;;;11.80;7.15;;;4.90;99.90;;;;;;5019985;28;20059;-90
2021/12/06 12:36:06;;;;;;;9.23;7.93;;;4.90;99.90;;;;;;5039905;28;20748;-89
2021/12/06 12:38:35;;;;;;;9.65;7.45;;;4.80;99.90;;;;;;5019594;28;20037;-90
2021/12/06 12:41:06;;;;;;;9.48;7.50;;;4.80;99.90;;;;;;5042377;28;20493;-91
2021/12/06 12:43:43;;;;;;;8.15;7.45;;;4.90;99.90;;;;;;5033556;28;20034;-90
2021/12/06 12:46:14;;;;;;;8.25;7.35;;;5.00;99.90;;;;;;5016842;28;20071;-91
2021/12/06 12:49:02;;;;;;;9.43;6.82;;;5.00;99.90;;;;;;5015181;28;20172;-90
2021/12/06 12:51:30;;;;;;;10.00;7.70;;;5.00;99.90;;;;;;5031773;28;20559;-91
2021/12/06 12:54:07;;;;;;;7.88;7.18;;;5.00;99.90;;;;;;5033279;28;20018;-91
2021/12/06 12:56:35;;;;;;;9.82;8.40;;;5.00;99.90;;;;;;5015468;28;20021;-91
2021/12/06 12:59:19;;;;;;;6.93;6.22;;;5.00;99.90;;;;;;5015402;28;20032;-90
2021/12/06 13:02:11;;;;;;;7.60;6.70;;;5.00;99.90;;;;;;5047927;28;20025;-91
2021/12/06 13:04:58;;;;;;;8.35;7.55;;;5.00;99.90;;;;;;5019642;28;20041;-90